PWSweather.com
Personal Weather Stations
Station Observations
METEOC500
Santo Antonio, FunchalPT 2020

Santo AntonioFunchalPT 2020

Lat: 32.678227, Lon: -16.945054

Elevation: 1669.94751

Station Type: WH Series

High Low Average
Temperature 71.4°F21.9°C 60.3°F15.7°C 65.0°F18.3°C
Dew Point 60.6°F15.9°C 52.2°F11.2°C 56.9°F13.8°C
Winds 9.6 mph 15.4 kmh Calm Calm 5.0 mph WSW8.0 kmh WSW
Wind Gusts 15.0 mph24.1 kmh -- 10.0 mph16.1 kmh
Humidity 84% 63% 75%
Pressure 30.22 in1023.4 mb 30.14 in1020.7 mb -
Precipitation 0.00 in0.0 mm - -
Hour Temp Dew Point Humidity Winds Wind Gusts Pressure Precip Precip Rate Daily Precip Total
12:10 AM 62.4°F16.9°C 54.0°F12.2°C 74% 3.8 mph NNW6.1 kmh NNW 4.9 mph7.9 kmh 30.22 in1023.4 mb 0.00 in0.0 mm 0.00 in0.0 mm 0.00 in0.0 mm
12:25 AM 62.4°F16.9°C 53.6°F12.0°C 73% 6.5 mph N10.5 kmh N 10.1 mph16.3 kmh 30.22 in1023.4 mb 0.00 in0.0 mm 0.00 in0.0 mm 0.00 in0.0 mm
12:40 AM 63.0°F17.2°C 54.1°F12.3°C 73% 7.2 mph NNW11.6 kmh NNW 10.1 mph16.3 kmh 30.21 in1023.0 mb 0.00 in0.0 mm 0.00 in0.0 mm 0.00 in0.0 mm
12:55 AM 63.1°F17.3°C 54.7°F12.6°C 74% 3.8 mph NW6.1 kmh NW 7.6 mph12.2 kmh 30.21 in1023.0 mb 0.00 in0.0 mm 0.00 in0.0 mm 0.00 in0.0 mm
01:10 AM 63.1°F17.3°C 55.8°F13.2°C 77% 2.2 mph NNW3.5 kmh NNW 7.6 mph12.2 kmh 30.21 in1023.0 mb 0.00 in0.0 mm 0.00 in0.0 mm 0.00 in0.0 mm
01:25 AM 62.8°F17.1°C 54.7°F12.6°C 75% 2.9 mph NNW4.7 kmh NNW 7.6 mph12.2 kmh 30.20 in1022.7 mb 0.00 in0.0 mm 0.00 in0.0 mm 0.00 in0.0 mm
01:40 AM 62.8°F17.1°C 54.0°F12.2°C 73% 2.5 mph NNW4.0 kmh NNW 4.9 mph7.9 kmh 30.20 in1022.7 mb 0.00 in0.0 mm 0.00 in0.0 mm 0.00 in0.0 mm
01:55 AM 63.1°F17.3°C 54.3°F12.4°C 73% 4.0 mph NW6.4 kmh NW 10.1 mph16.3 kmh 30.20 in1022.7 mb 0.00 in0.0 mm 0.00 in0.0 mm 0.00 in0.0 mm
02:10 AM 63.1°F17.3°C 54.3°F12.4°C 73% 4.5 mph NNW7.2 kmh NNW 10.1 mph16.3 kmh 30.20 in1022.7 mb 0.00 in0.0 mm 0.00 in0.0 mm 0.00 in0.0 mm
02:25 AM 62.6°F17.0°C 54.1°F12.3°C 74% 9.2 mph NNW14.8 kmh NNW 10.1 mph16.3 kmh 30.19 in1022.4 mb 0.00 in0.0 mm 0.00 in0.0 mm 0.00 in0.0 mm
02:40 AM 62.1°F16.7°C 54.0°F12.2°C 75% 4.9 mph NNW7.9 kmh NNW 10.1 mph16.3 kmh 30.19 in1022.4 mb 0.00 in0.0 mm 0.00 in0.0 mm 0.00 in0.0 mm
02:55 AM 61.7°F16.5°C 54.1°F12.3°C 76% 6.9 mph NNW11.1 kmh NNW 10.1 mph16.3 kmh 30.19 in1022.4 mb 0.00 in0.0 mm 0.00 in0.0 mm 0.00 in0.0 mm
03:10 AM 61.5°F16.4°C 54.7°F12.6°C 78% 4.7 mph NNW7.6 kmh NNW 10.1 mph16.3 kmh 30.19 in1022.4 mb 0.00 in0.0 mm 0.00 in0.0 mm 0.00 in0.0 mm
03:25 AM 61.5°F16.4°C 54.7°F12.6°C 78% 5.6 mph NNW9.0 kmh NNW 10.1 mph16.3 kmh 30.19 in1022.4 mb 0.00 in0.0 mm 0.00 in0.0 mm 0.00 in0.0 mm
03:40 AM 61.5°F16.4°C 54.3°F12.4°C 77% 4.9 mph NNW7.9 kmh NNW 10.1 mph16.3 kmh 30.18 in1022.0 mb 0.00 in0.0 mm 0.00 in0.0 mm 0.00 in0.0 mm
03:55 AM 61.5°F16.4°C 54.0°F12.2°C 76% 4.9 mph NNW7.9 kmh NNW 10.1 mph16.3 kmh 30.18 in1022.0 mb 0.00 in0.0 mm 0.00 in0.0 mm 0.00 in0.0 mm
04:10 AM 61.5°F16.4°C 54.7°F12.6°C 78% 4.5 mph NNW7.2 kmh NNW 7.6 mph12.2 kmh 30.17 in1021.7 mb 0.00 in0.0 mm 0.00 in0.0 mm 0.00 in0.0 mm
04:25 AM 61.2°F16.2°C 54.9°F12.7°C 80% 3.4 mph NNW5.5 kmh NNW 7.6 mph12.2 kmh 30.16 in1021.3 mb 0.00 in0.0 mm 0.00 in0.0 mm 0.00 in0.0 mm
04:40 AM 61.0°F16.1°C 54.1°F12.3°C 78% 4.5 mph NNW7.2 kmh NNW 10.1 mph16.3 kmh 30.16 in1021.3 mb 0.00 in0.0 mm 0.00 in0.0 mm 0.00 in0.0 mm
04:56 AM 61.3°F16.3°C 54.1°F12.3°C 77% 6.5 mph NNW10.5 kmh NNW 10.1 mph16.3 kmh 30.16 in1021.3 mb 0.00 in0.0 mm 0.00 in0.0 mm 0.00 in0.0 mm
05:11 AM 61.3°F16.3°C 54.5°F12.5°C 78% 6.0 mph NW9.7 kmh NW 7.6 mph12.2 kmh 30.16 in1021.3 mb 0.00 in0.0 mm 0.00 in0.0 mm 0.00 in0.0 mm
05:26 AM 61.2°F16.2°C 54.0°F12.2°C 77% 6.0 mph NNW9.7 kmh NNW 12.5 mph20.1 kmh 30.16 in1021.3 mb 0.00 in0.0 mm 0.00 in0.0 mm 0.00 in0.0 mm
05:41 AM 61.0°F16.1°C 54.1°F12.3°C 78% 5.6 mph NW9.0 kmh NW 7.6 mph12.2 kmh 30.17 in1021.7 mb 0.00 in0.0 mm 0.00 in0.0 mm 0.00 in0.0 mm
05:56 AM 60.6°F15.9°C 53.8°F12.1°C 78% 4.9 mph NNW7.9 kmh NNW 7.6 mph12.2 kmh 30.17 in1021.7 mb 0.00 in0.0 mm 0.00 in0.0 mm 0.00 in0.0 mm
06:11 AM 60.3°F15.7°C 53.8°F12.1°C 79% 4.0 mph N6.4 kmh N 7.6 mph12.2 kmh 30.17 in1021.7 mb 0.00 in0.0 mm 0.00 in0.0 mm 0.00 in0.0 mm
06:26 AM 60.3°F15.7°C 52.3°F11.3°C 75% 4.5 mph NNW7.2 kmh NNW 10.1 mph16.3 kmh 30.17 in1021.7 mb 0.00 in0.0 mm 0.00 in0.0 mm 0.00 in0.0 mm
06:41 AM 60.3°F15.7°C 52.7°F11.5°C 76% 6.5 mph N10.5 kmh N 10.1 mph16.3 kmh 30.17 in1021.7 mb 0.00 in0.0 mm 0.00 in0.0 mm 0.00 in0.0 mm
06:56 AM 60.4°F15.8°C 52.2°F11.2°C 74% 4.7 mph NNW7.6 kmh NNW 12.5 mph20.1 kmh 30.18 in1022.0 mb 0.00 in0.0 mm 0.00 in0.0 mm 0.00 in0.0 mm
07:11 AM 61.0°F16.1°C 53.4°F11.9°C 76% 7.2 mph NNW11.6 kmh NNW 10.1 mph16.3 kmh 30.18 in1022.0 mb 0.00 in0.0 mm 0.00 in0.0 mm 0.00 in0.0 mm
07:26 AM 61.0°F16.1°C 53.8°F12.1°C 77% 4.7 mph NNW7.6 kmh NNW 10.1 mph16.3 kmh 30.17 in1021.7 mb 0.00 in0.0 mm 0.00 in0.0 mm 0.00 in0.0 mm
07:41 AM 61.2°F16.2°C 53.6°F12.0°C 76% 6.0 mph N9.7 kmh N 10.1 mph16.3 kmh 30.18 in1022.0 mb 0.00 in0.0 mm 0.00 in0.0 mm 0.00 in0.0 mm
07:56 AM 61.7°F16.5°C 54.1°F12.3°C 76% 5.6 mph N9.0 kmh N 10.1 mph16.3 kmh 30.18 in1022.0 mb 0.00 in0.0 mm 0.00 in0.0 mm 0.00 in0.0 mm
08:11 AM 62.1°F16.7°C 54.3°F12.4°C 76% 5.6 mph N9.0 kmh N 10.1 mph16.3 kmh 30.19 in1022.4 mb 0.00 in0.0 mm 0.00 in0.0 mm 0.00 in0.0 mm
08:26 AM 62.6°F17.0°C 54.5°F12.5°C 75% 3.8 mph N6.1 kmh N 7.6 mph12.2 kmh 30.18 in1022.0 mb 0.00 in0.0 mm 0.00 in0.0 mm 0.00 in0.0 mm
08:41 AM 63.3°F17.4°C 54.9°F12.7°C 74% 3.1 mph N5.0 kmh N 7.6 mph12.2 kmh 30.19 in1022.4 mb 0.00 in0.0 mm 0.00 in0.0 mm 0.00 in0.0 mm
08:56 AM 64.2°F17.9°C 54.7°F12.6°C 71% 0.7 mph N1.1 kmh N 7.6 mph12.2 kmh 30.20 in1022.7 mb 0.00 in0.0 mm 0.00 in0.0 mm 0.00 in0.0 mm
09:11 AM 66.6°F19.2°C 55.2°F12.9°C 67% 4.0 mph SE6.4 kmh SE 7.6 mph12.2 kmh 30.20 in1022.7 mb 0.00 in0.0 mm 0.00 in0.0 mm 0.00 in0.0 mm
09:26 AM 68.4°F20.2°C 57.0°F13.9°C 67% 3.1 mph E5.0 kmh E 7.6 mph12.2 kmh 30.21 in1023.0 mb 0.00 in0.0 mm 0.00 in0.0 mm 0.00 in0.0 mm
09:42 AM 69.3°F20.7°C 57.9°F14.4°C 67% 3.4 mph E5.5 kmh E 10.1 mph16.3 kmh 30.20 in1022.7 mb 0.00 in0.0 mm 0.00 in0.0 mm 0.00 in0.0 mm
09:57 AM 70.0°F21.1°C 56.8°F13.8°C 63% 4.5 mph S7.2 kmh S 7.6 mph12.2 kmh 30.21 in1023.0 mb 0.00 in0.0 mm 0.00 in0.0 mm 0.00 in0.0 mm
10:12 AM 70.7°F21.5°C 58.3°F14.6°C 65% 2.2 mph SE3.5 kmh SE 12.5 mph20.1 kmh 30.21 in1023.0 mb 0.00 in0.0 mm 0.00 in0.0 mm 0.00 in0.0 mm
10:27 AM 70.9°F21.6°C 59.4°F15.2°C 67% 4.0 mph SW6.4 kmh SW 12.5 mph20.1 kmh 30.22 in1023.4 mb 0.00 in0.0 mm 0.00 in0.0 mm 0.00 in0.0 mm
10:42 AM 70.5°F21.4°C 57.7°F14.3°C 64% 5.6 mph SSE9.0 kmh SSE 12.5 mph20.1 kmh 30.21 in1023.0 mb 0.00 in0.0 mm 0.00 in0.0 mm 0.00 in0.0 mm
10:57 AM 70.3°F21.3°C 58.8°F14.9°C 67% 2.9 mph SE4.7 kmh SE 10.1 mph16.3 kmh 30.21 in1023.0 mb 0.00 in0.0 mm 0.00 in0.0 mm 0.00 in0.0 mm
11:12 AM 70.2°F21.2°C 57.4°F14.1°C 64% 4.9 mph SE7.9 kmh SE 10.1 mph16.3 kmh 30.21 in1023.0 mb 0.00 in0.0 mm 0.00 in0.0 mm 0.00 in0.0 mm
11:27 AM 70.7°F21.5°C 58.8°F14.9°C 66% 2.2 mph SW3.5 kmh SW 15.0 mph24.1 kmh 30.20 in1022.7 mb 0.00 in0.0 mm 0.00 in0.0 mm 0.00 in0.0 mm
11:42 AM 71.1°F21.7°C 59.5°F15.3°C 67% 2.9 mph S4.7 kmh S 12.5 mph20.1 kmh 30.21 in1023.0 mb 0.00 in0.0 mm 0.00 in0.0 mm 0.00 in0.0 mm
11:57 AM 71.2°F21.8°C 60.6°F15.9°C 69% 8.7 mph S14.0 kmh S 15.0 mph24.1 kmh 30.20 in1022.7 mb 0.00 in0.0 mm 0.00 in0.0 mm 0.00 in0.0 mm
12:12 PM 70.3°F21.3°C 60.1°F15.6°C 70% 7.8 mph SE12.6 kmh SE 15.0 mph24.1 kmh 30.21 in1023.0 mb 0.00 in0.0 mm 0.00 in0.0 mm 0.00 in0.0 mm
12:27 PM 69.6°F20.9°C 59.0°F15.0°C 69% 8.1 mph SE13.0 kmh SE 15.0 mph24.1 kmh 30.20 in1022.7 mb 0.00 in0.0 mm 0.00 in0.0 mm 0.00 in0.0 mm
12:42 PM 70.3°F21.3°C 59.4°F15.2°C 68% 6.3 mph SSW10.1 kmh SSW 12.5 mph20.1 kmh 30.19 in1022.4 mb 0.00 in0.0 mm 0.00 in0.0 mm 0.00 in0.0 mm
12:57 PM 71.4°F21.9°C 59.5°F15.3°C 66% 6.3 mph SSE10.1 kmh SSE 15.0 mph24.1 kmh 30.19 in1022.4 mb 0.00 in0.0 mm 0.00 in0.0 mm 0.00 in0.0 mm
01:12 PM 70.9°F21.6°C 60.6°F15.9°C 70% 6.3 mph ESE10.1 kmh ESE 15.0 mph24.1 kmh 30.18 in1022.0 mb 0.00 in0.0 mm 0.00 in0.0 mm 0.00 in0.0 mm
01:27 PM 70.0°F21.1°C 59.4°F15.2°C 69% 7.6 mph SE12.2 kmh SE 12.5 mph20.1 kmh 30.18 in1022.0 mb 0.00 in0.0 mm 0.00 in0.0 mm 0.00 in0.0 mm
01:42 PM 69.8°F21.0°C 59.2°F15.1°C 69% 7.6 mph SE12.2 kmh SE 12.5 mph20.1 kmh 30.17 in1021.7 mb 0.00 in0.0 mm 0.00 in0.0 mm 0.00 in0.0 mm
01:57 PM 69.3°F20.7°C 59.9°F15.5°C 72% 5.4 mph SW8.7 kmh SW 15.0 mph24.1 kmh 30.17 in1021.7 mb 0.00 in0.0 mm 0.00 in0.0 mm 0.00 in0.0 mm
02:12 PM 68.5°F20.3°C 58.8°F14.9°C 71% 6.0 mph SE9.7 kmh SE 12.5 mph20.1 kmh 30.17 in1021.7 mb 0.00 in0.0 mm 0.00 in0.0 mm 0.00 in0.0 mm
02:28 PM 68.7°F20.4°C 59.4°F15.2°C 72% 5.6 mph SE9.0 kmh SE 15.0 mph24.1 kmh 30.16 in1021.3 mb 0.00 in0.0 mm 0.00 in0.0 mm 0.00 in0.0 mm
02:43 PM 68.9°F20.5°C 59.5°F15.3°C 72% 6.0 mph S9.7 kmh S 10.1 mph16.3 kmh 30.16 in1021.3 mb 0.00 in0.0 mm 0.00 in0.0 mm 0.00 in0.0 mm
02:58 PM 68.9°F20.5°C 59.5°F15.3°C 72% 3.1 mph S5.0 kmh S 12.5 mph20.1 kmh 30.16 in1021.3 mb 0.00 in0.0 mm 0.00 in0.0 mm 0.00 in0.0 mm
03:13 PM 69.1°F20.6°C 58.8°F14.9°C 70% 2.9 mph S4.7 kmh S 12.5 mph20.1 kmh 30.16 in1021.3 mb 0.00 in0.0 mm 0.00 in0.0 mm 0.00 in0.0 mm
03:28 PM 70.0°F21.1°C 58.5°F14.7°C 67% 9.6 mph SE15.4 kmh SE 12.5 mph20.1 kmh 30.15 in1021.0 mb 0.00 in0.0 mm 0.00 in0.0 mm 0.00 in0.0 mm
03:43 PM 70.5°F21.4°C 60.3°F15.7°C 70% 6.0 mph ESE9.7 kmh ESE 15.0 mph24.1 kmh 30.15 in1021.0 mb 0.00 in0.0 mm 0.00 in0.0 mm 0.00 in0.0 mm
03:58 PM 69.8°F21.0°C 60.4°F15.8°C 72% 4.7 mph ESE7.6 kmh ESE 10.1 mph16.3 kmh 30.15 in1021.0 mb 0.00 in0.0 mm 0.00 in0.0 mm 0.00 in0.0 mm
04:13 PM 68.7°F20.4°C 60.1°F15.6°C 74% 0.9 mph S1.4 kmh S 10.1 mph16.3 kmh 30.15 in1021.0 mb 0.00 in0.0 mm 0.00 in0.0 mm 0.00 in0.0 mm
04:28 PM 68.0°F20.0°C 59.7°F15.4°C 75% 6.9 mph S11.1 kmh S 12.5 mph20.1 kmh 30.15 in1021.0 mb 0.00 in0.0 mm 0.00 in0.0 mm 0.00 in0.0 mm
04:43 PM 68.0°F20.0°C 59.7°F15.4°C 75% 3.1 mph S5.0 kmh S 10.1 mph16.3 kmh 30.15 in1021.0 mb 0.00 in0.0 mm 0.00 in0.0 mm 0.00 in0.0 mm
04:58 PM 68.0°F20.0°C 60.1°F15.6°C 76% 1.8 mph S2.9 kmh S 10.1 mph16.3 kmh 30.15 in1021.0 mb 0.00 in0.0 mm 0.00 in0.0 mm 0.00 in0.0 mm
05:13 PM 67.8°F19.9°C 60.3°F15.7°C 77% 2.2 mph SSE3.5 kmh SSE 10.1 mph16.3 kmh 30.15 in1021.0 mb 0.00 in0.0 mm 0.00 in0.0 mm 0.00 in0.0 mm
05:28 PM 67.5°F19.7°C 60.1°F15.6°C 77% 3.1 mph S5.0 kmh S 10.1 mph16.3 kmh 30.14 in1020.7 mb 0.00 in0.0 mm 0.00 in0.0 mm 0.00 in0.0 mm
05:43 PM 66.9°F19.4°C 59.9°F15.5°C 78% 0.2 mph SSE0.3 kmh SSE 10.1 mph16.3 kmh 30.15 in1021.0 mb 0.00 in0.0 mm 0.00 in0.0 mm 0.00 in0.0 mm
05:58 PM 66.7°F19.3°C 60.4°F15.8°C 80% 5.6 mph SE9.0 kmh SE 10.1 mph16.3 kmh 30.14 in1020.7 mb 0.00 in0.0 mm 0.00 in0.0 mm 0.00 in0.0 mm
06:13 PM 66.4°F19.1°C 60.1°F15.6°C 80% 1.6 mph E2.6 kmh E 7.6 mph12.2 kmh 30.15 in1021.0 mb 0.00 in0.0 mm 0.00 in0.0 mm 0.00 in0.0 mm
06:28 PM 66.2°F19.0°C 60.3°F15.7°C 81% 0.2 mph S0.3 kmh S 7.6 mph12.2 kmh 30.14 in1020.7 mb 0.00 in0.0 mm 0.00 in0.0 mm 0.00 in0.0 mm
06:43 PM 66.0°F18.9°C 60.1°F15.6°C 81% 1.3 mph SSW2.1 kmh SSW 7.6 mph12.2 kmh 30.14 in1020.7 mb 0.00 in0.0 mm 0.00 in0.0 mm 0.00 in0.0 mm
06:58 PM 65.8°F18.8°C 59.5°F15.3°C 80% 2.5 mph SE4.0 kmh SE 4.9 mph7.9 kmh 30.15 in1021.0 mb 0.00 in0.0 mm 0.00 in0.0 mm 0.00 in0.0 mm
07:13 PM 65.7°F18.7°C 59.4°F15.2°C 80% Calm Calm 4.9 mph7.9 kmh 30.15 in1021.0 mb 0.00 in0.0 mm 0.00 in0.0 mm 0.00 in0.0 mm
07:29 PM 65.7°F18.7°C 59.4°F15.2°C 80% Calm Calm -- 30.15 in1021.0 mb 0.00 in0.0 mm 0.00 in0.0 mm 0.00 in0.0 mm
07:44 PM 65.5°F18.6°C 59.5°F15.3°C 81% Calm Calm -- 30.16 in1021.3 mb 0.00 in0.0 mm 0.00 in0.0 mm 0.00 in0.0 mm
07:59 PM 65.3°F18.5°C 59.7°F15.4°C 82% 3.4 mph NNW5.5 kmh NNW 7.6 mph12.2 kmh 30.16 in1021.3 mb 0.00 in0.0 mm 0.00 in0.0 mm 0.00 in0.0 mm
08:14 PM 64.9°F18.3°C 59.4°F15.2°C 82% Calm Calm 4.9 mph7.9 kmh 30.16 in1021.3 mb 0.00 in0.0 mm 0.00 in0.0 mm 0.00 in0.0 mm
08:29 PM 64.2°F17.9°C 58.6°F14.8°C 82% 5.4 mph NNW8.7 kmh NNW 10.1 mph16.3 kmh 30.17 in1021.7 mb 0.00 in0.0 mm 0.00 in0.0 mm 0.00 in0.0 mm
08:44 PM 63.1°F17.3°C 57.2°F14.0°C 81% 4.9 mph N7.9 kmh N 10.1 mph16.3 kmh 30.17 in1021.7 mb 0.00 in0.0 mm 0.00 in0.0 mm 0.00 in0.0 mm
08:59 PM 62.4°F16.9°C 56.8°F13.8°C 82% 4.5 mph NW7.2 kmh NW 10.1 mph16.3 kmh 30.18 in1022.0 mb 0.00 in0.0 mm 0.00 in0.0 mm 0.00 in0.0 mm
09:14 PM 62.1°F16.7°C 56.5°F13.6°C 82% 4.9 mph N7.9 kmh N 10.1 mph16.3 kmh 30.19 in1022.4 mb 0.00 in0.0 mm 0.00 in0.0 mm 0.00 in0.0 mm
09:29 PM 62.1°F16.7°C 56.5°F13.6°C 82% 5.6 mph NNW9.0 kmh NNW 7.6 mph12.2 kmh 30.19 in1022.4 mb 0.00 in0.0 mm 0.00 in0.0 mm 0.00 in0.0 mm
09:44 PM 61.9°F16.6°C 55.9°F13.3°C 81% 8.1 mph NNW13.0 kmh NNW 10.1 mph16.3 kmh 30.19 in1022.4 mb 0.00 in0.0 mm 0.00 in0.0 mm 0.00 in0.0 mm
09:59 PM 62.1°F16.7°C 56.1°F13.4°C 81% 4.7 mph NNW7.6 kmh NNW 12.5 mph20.1 kmh 30.19 in1022.4 mb 0.00 in0.0 mm 0.00 in0.0 mm 0.00 in0.0 mm
10:14 PM 61.7°F16.5°C 56.5°F13.6°C 83% 4.7 mph N7.6 kmh N 7.6 mph12.2 kmh 30.19 in1022.4 mb 0.00 in0.0 mm 0.00 in0.0 mm 0.00 in0.0 mm
10:29 PM 61.3°F16.3°C 56.1°F13.4°C 83% 5.4 mph NNW8.7 kmh NNW 10.1 mph16.3 kmh 30.20 in1022.7 mb 0.00 in0.0 mm 0.00 in0.0 mm 0.00 in0.0 mm
10:44 PM 61.3°F16.3°C 56.5°F13.6°C 84% 4.9 mph NNW7.9 kmh NNW 7.6 mph12.2 kmh 30.19 in1022.4 mb 0.00 in0.0 mm 0.00 in0.0 mm 0.00 in0.0 mm
10:59 PM 61.3°F16.3°C 56.5°F13.6°C 84% 4.5 mph N7.2 kmh N 10.1 mph16.3 kmh 30.19 in1022.4 mb 0.00 in0.0 mm 0.00 in0.0 mm 0.00 in0.0 mm
11:14 PM 61.2°F16.2°C 55.9°F13.3°C 83% 4.9 mph N7.9 kmh N 10.1 mph16.3 kmh 30.19 in1022.4 mb 0.00 in0.0 mm 0.00 in0.0 mm 0.00 in0.0 mm
11:29 PM 61.3°F16.3°C 55.8°F13.2°C 82% 6.9 mph N11.1 kmh N 10.1 mph16.3 kmh 30.20 in1022.7 mb 0.00 in0.0 mm 0.00 in0.0 mm 0.00 in0.0 mm
11:44 PM 61.5°F16.4°C 56.3°F13.5°C 83% 6.3 mph N10.1 kmh N 10.1 mph16.3 kmh 30.20 in1022.7 mb 0.00 in0.0 mm 0.00 in0.0 mm 0.00 in0.0 mm
11:59 PM 61.5°F16.4°C 56.3°F13.5°C 83% 6.0 mph NNW9.7 kmh NNW 10.1 mph16.3 kmh 30.20 in1022.7 mb 0.00 in0.0 mm 0.00 in0.0 mm 0.00 in0.0 mm